createdAt,value
2022-08-07T00:01:43.651Z,13.05
2022-08-07T00:04:24.786Z,9.88
2022-08-07T00:07:01.410Z,14.30
2022-08-07T00:09:35.833Z,13.48
2022-08-07T00:12:06.710Z,11.60
2022-08-07T00:14:44.223Z,16.12
2022-08-07T00:17:14.794Z,14.85
2022-08-07T00:20:01.561Z,14.45
2022-08-07T00:22:24.429Z,16.70
2022-08-07T00:24:59.984Z,12.65
2022-08-07T00:27:51.933Z,11.43
2022-08-07T00:30:26.423Z,13.03
2022-08-07T00:32:48.177Z,12.20
2022-08-07T00:35:23.846Z,29.35
2022-08-07T00:37:54.601Z,15.15
2022-08-07T00:40:39.859Z,10.32
2022-08-07T00:42:58.037Z,11.50
2022-08-07T00:45:28.954Z,12.93
2022-08-07T00:48:09.626Z,15.50
2022-08-07T00:50:46.256Z,16.00
2022-08-07T00:53:09.183Z,13.38
2022-08-07T00:56:03.325Z,16.05
2022-08-07T00:58:12.869Z,15.48
2022-08-07T01:00:53.823Z,12.30
2022-08-07T01:03:56.941Z,12.33
2022-08-07T01:05:59.763Z,12.23
2022-08-07T01:08:32.348Z,10.68
2022-08-07T01:12:05.005Z,13.38
2022-08-07T01:13:36.421Z,11.45
2022-08-07T01:16:11.809Z,15.80
2022-08-07T01:18:44.365Z,13.10
2022-08-07T01:21:22.756Z,17.25
2022-08-07T01:23:51.705Z,13.00
2022-08-07T01:26:26.081Z,15.98
2022-08-07T01:29:01.078Z,13.60
2022-08-07T01:31:41.532Z,14.30
2022-08-07T01:34:08.973Z,10.43
2022-08-07T01:36:57.575Z,12.43
2022-08-07T01:39:14.770Z,13.08
2022-08-07T01:42:07.403Z,13.38
2022-08-07T01:44:34.873Z,13.93
2022-08-07T01:48:16.632Z,14.05
2022-08-07T01:49:38.104Z,16.10
2022-08-07T01:52:13.285Z,11.10
2022-08-07T01:54:46.525Z,9.68
2022-08-07T01:57:28.939Z,14.35
2022-08-07T02:00:13.011Z,9.68
2022-08-07T02:03:12.483Z,15.85
2022-08-07T02:05:59.408Z,13.58
2022-08-07T02:08:24.585Z,10.45
2022-08-07T02:10:57.910Z,12.50
2022-08-07T02:13:57.697Z,13.25
2022-08-07T02:16:04.413Z,15.45
2022-08-07T02:18:46.830Z,12.25
2022-08-07T02:21:16.206Z,15.25
2022-08-07T02:23:49.315Z,15.15
2022-08-07T02:26:32.538Z,13.25
2022-08-07T02:28:50.929Z,13.13
2022-08-07T02:31:29.120Z,19.30
2022-08-07T02:34:03.241Z,13.13
2022-08-07T02:36:32.808Z,17.45
2022-08-07T02:39:00.731Z,14.47
2022-08-07T02:45:59.001Z,14.45
2022-08-07T02:48:28.943Z,11.10
2022-08-07T02:51:42.073Z,13.13
2022-08-07T02:57:48.932Z,14.25
2022-08-07T03:06:34.665Z,12.75
2022-08-07T03:15:47.905Z,15.80
2022-08-07T03:18:20.197Z,12.15
2022-08-07T03:20:52.540Z,13.75
2022-08-07T03:23:33.425Z,11.10
2022-08-07T03:25:58.395Z,15.28
2022-08-07T03:28:37.729Z,16.42
2022-08-07T03:31:43.308Z,15.48
2022-08-07T03:34:18.566Z,13.08
2022-08-07T03:36:51.886Z,13.93
2022-08-07T03:42:55.914Z,13.98
2022-08-07T03:45:30.719Z,12.78
2022-08-07T03:47:58.439Z,12.28
2022-08-07T03:50:32.211Z,13.83
2022-08-07T03:53:06.969Z,13.68
2022-08-07T03:56:04.433Z,15.93
2022-08-07T03:59:08.009Z,12.55
2022-08-07T04:01:07.485Z,12.85
2022-08-07T04:03:53.320Z,10.45
2022-08-07T04:06:37.830Z,13.95
2022-08-07T04:08:51.970Z,10.85
2022-08-07T04:12:27.984Z,11.88
2022-08-07T04:14:33.257Z,13.10
2022-08-07T04:16:58.216Z,12.07
2022-08-07T04:19:50.934Z,13.88
2022-08-07T04:22:07.801Z,14.68
2022-08-07T04:24:39.104Z,11.45
2022-08-07T04:27:20.615Z,11.28
2022-08-07T04:33:16.807Z,9.88
2022-08-07T04:35:54.454Z,12.15
2022-08-07T04:38:28.261Z,10.48
2022-08-07T04:41:06.200Z,12.07
2022-08-07T04:44:12.443Z,9.60
2022-08-07T04:47:10.274Z,9.53
2022-08-07T04:49:57.783Z,8.83
2022-08-07T04:52:51.281Z,11.88
2022-08-07T04:58:12.097Z,10.98
2022-08-07T05:01:33.852Z,12.93
2022-08-07T05:04:17.808Z,12.85
2022-08-07T05:24:11.313Z,13.10
2022-08-07T05:30:00.310Z,10.10
2022-08-07T05:32:39.077Z,9.45
2022-08-07T05:35:14.503Z,8.58
2022-08-07T05:37:46.841Z,10.48
2022-08-07T05:40:25.532Z,10.08
2022-08-07T05:43:00.910Z,9.90
2022-08-07T05:45:48.332Z,8.58
2022-08-07T05:48:18.224Z,12.03
2022-08-07T05:50:54.413Z,9.73
2022-08-07T05:54:12.900Z,9.85
2022-08-07T05:56:16.178Z,8.43
2022-08-07T05:58:58.878Z,10.53
2022-08-07T06:01:34.960Z,8.60
2022-08-07T06:04:06.606Z,11.55
2022-08-07T06:06:56.411Z,15.40
2022-08-07T06:12:31.809Z,10.10
2022-08-07T06:14:58.782Z,12.60
2022-08-07T06:17:53.658Z,12.15
2022-08-07T06:20:27.309Z,9.65
2022-08-07T06:23:24.677Z,10.05
2022-08-07T06:25:34.735Z,8.53
2022-08-07T06:28:16.630Z,8.65
2022-08-07T06:30:52.980Z,10.08
2022-08-07T06:33:19.737Z,8.75
2022-08-07T06:36:12.138Z,8.95
2022-08-07T06:38:22.345Z,9.95
2022-08-07T06:40:57.432Z,9.53
2022-08-07T06:43:27.523Z,8.88
2022-08-07T06:46:00.958Z,10.18
2022-08-07T06:48:29.835Z,18.37
2022-08-07T06:51:08.153Z,14.00
2022-08-07T06:55:29.876Z,8.93
2022-08-07T06:56:07.514Z,8.85
2022-08-07T07:00:12.870Z,9.78
2022-08-07T07:01:20.914Z,9.68
2022-08-07T07:03:57.238Z,10.10
2022-08-07T07:06:31.656Z,14.68
2022-08-07T07:09:24.209Z,12.90
2022-08-07T07:12:16.835Z,10.80
2022-08-07T07:14:50.511Z,9.25
2022-08-07T07:17:39.515Z,9.55
2022-08-07T07:20:17.501Z,9.48
2022-08-07T07:24:06.331Z,14.10
2022-08-07T07:26:32.620Z,12.70
2022-08-07T07:28:42.473Z,9.85
2022-08-07T07:30:49.277Z,9.40
2022-08-07T07:33:20.902Z,8.73
2022-08-07T07:36:04.450Z,8.83
2022-08-07T07:38:30.580Z,9.95
2022-08-07T07:41:04.079Z,14.63
2022-08-07T07:44:14.231Z,12.68
2022-08-07T07:46:36.989Z,15.60
2022-08-07T07:48:39.879Z,13.08
2022-08-07T07:51:12.745Z,14.98
2022-08-07T07:53:52.543Z,20.08
2022-08-07T07:56:18.499Z,18.05
2022-08-07T07:58:51.188Z,18.80
2022-08-07T08:02:02.743Z,20.23
2022-08-07T08:04:11.127Z,15.95
2022-08-07T08:07:59.790Z,22.37
2022-08-07T08:16:25.880Z,13.30
2022-08-07T08:20:17.445Z,10.13
2022-08-07T08:22:05.481Z,15.03
2022-08-07T08:25:04.866Z,9.53
2022-08-07T08:27:33.597Z,9.25
2022-08-07T08:30:19.471Z,16.02
2022-08-07T08:32:54.944Z,9.70
2022-08-07T08:35:39.102Z,13.38
2022-08-07T08:38:06.680Z,9.43
2022-08-07T08:40:59.092Z,11.50
2022-08-07T08:43:56.118Z,11.57
2022-08-07T08:46:40.113Z,10.85
2022-08-07T08:50:04.793Z,12.50
2022-08-07T08:55:54.608Z,9.05
2022-08-07T09:02:08.704Z,11.73
2022-08-07T09:04:51.458Z,11.90
2022-08-07T09:07:57.780Z,9.58
2022-08-07T09:10:25.342Z,10.23
2022-08-07T09:13:45.977Z,9.30
2022-08-07T09:16:30.129Z,8.53
2022-08-07T09:18:59.034Z,9.50
2022-08-07T09:21:57.821Z,12.30
2022-08-07T09:24:58.879Z,8.28
2022-08-07T09:27:30.329Z,11.10
2022-08-07T09:30:09.005Z,7.78
2022-08-07T09:32:56.527Z,7.45
2022-08-07T09:36:03.370Z,10.28
2022-08-07T09:38:21.098Z,7.97
2022-08-07T09:41:14.552Z,9.80
2022-08-07T09:44:10.222Z,8.13
2022-08-07T09:47:52.127Z,7.83
2022-08-07T09:50:19.310Z,8.48
2022-08-07T09:52:54.060Z,7.55
2022-08-07T09:56:02.875Z,7.53
2022-08-07T09:58:32.587Z,7.45
2022-08-07T10:04:53.427Z,12.30
2022-08-07T10:07:58.129Z,9.08
2022-08-07T10:14:00.166Z,7.05
2022-08-07T10:16:34.894Z,6.65
2022-08-07T10:19:11.284Z,8.35
2022-08-07T10:22:15.368Z,7.25
2022-08-07T10:25:07.006Z,7.42
2022-08-07T10:28:15.377Z,6.80
2022-08-07T10:30:58.526Z,10.43
2022-08-07T10:34:05.601Z,12.73
2022-08-07T10:36:42.775Z,9.73
2022-08-07T10:39:41.837Z,10.98
2022-08-07T10:42:21.036Z,6.87
2022-08-07T10:45:12.818Z,8.75
2022-08-07T10:47:55.858Z,7.53
2022-08-07T10:50:32.352Z,7.87
2022-08-07T10:56:43.700Z,8.75
2022-08-07T11:00:04.177Z,9.53
2022-08-07T11:06:21.809Z,7.53
2022-08-07T11:15:54.375Z,7.10
2022-08-07T11:18:51.023Z,9.58
2022-08-07T11:30:18.179Z,7.10
2022-08-07T11:31:37.288Z,12.47
2022-08-07T11:34:59.209Z,11.57
2022-08-07T11:38:28.181Z,7.90
2022-08-07T11:42:02.092Z,9.45
2022-08-07T11:45:53.068Z,7.95
2022-08-07T11:47:58.845Z,9.53
2022-08-07T11:50:56.384Z,10.18
2022-08-07T11:53:38.114Z,7.95
2022-08-07T11:56:36.890Z,9.08
2022-08-07T12:00:12.089Z,8.25
2022-08-07T12:02:33.715Z,10.10
2022-08-07T12:05:08.989Z,9.73
2022-08-07T12:07:53.660Z,7.72
2022-08-07T12:10:48.431Z,10.35
2022-08-07T12:13:47.760Z,7.90
2022-08-07T12:16:30.709Z,7.95
2022-08-07T12:19:21.250Z,7.37
2022-08-07T12:22:39.009Z,6.95
2022-08-07T12:26:21.817Z,7.30
2022-08-07T12:31:00.698Z,7.33
2022-08-07T12:34:00.846Z,7.95
2022-08-07T12:40:04.143Z,8.73
2022-08-07T12:42:13.642Z,6.17
2022-08-07T12:48:00.269Z,8.43
2022-08-07T12:50:55.613Z,7.10
2022-08-07T12:54:24.449Z,6.78
2022-08-07T12:59:54.625Z,6.87
2022-08-07T13:03:07.057Z,10.00
2022-08-07T13:06:03.087Z,9.98
2022-08-07T13:08:59.654Z,7.35
2022-08-07T13:15:23.641Z,6.83
2022-08-07T13:17:59.456Z,7.40
2022-08-07T13:20:44.563Z,10.30
2022-08-07T13:24:00.635Z,6.62
2022-08-07T13:26:10.566Z,6.05
2022-08-07T13:28:44.582Z,11.45
2022-08-07T13:31:22.307Z,13.18
2022-08-07T13:34:30.086Z,7.03
2022-08-07T13:36:48.597Z,7.47
2022-08-07T13:40:35.354Z,8.10
2022-08-07T13:42:40.031Z,7.85
2022-08-07T13:45:40.640Z,7.92
2022-08-07T13:48:06.149Z,6.30
2022-08-07T13:50:32.842Z,8.13
2022-08-07T13:52:54.029Z,7.15
2022-08-07T13:55:26.264Z,11.15
2022-08-07T13:58:31.352Z,7.72
2022-08-07T14:01:08.815Z,8.05
2022-08-07T14:04:07.329Z,8.05
2022-08-07T14:06:08.645Z,7.78
2022-08-07T14:08:46.153Z,9.08
2022-08-07T14:11:21.603Z,6.55
2022-08-07T14:13:58.151Z,6.95
2022-08-07T14:16:41.394Z,7.80
2022-08-07T14:20:39.922Z,7.97
2022-08-07T14:22:12.551Z,7.87
2022-08-07T14:24:43.005Z,6.85
2022-08-07T14:28:09.881Z,8.83
2022-08-07T14:30:05.288Z,9.78
2022-08-07T14:32:26.893Z,9.98
2022-08-07T14:35:04.434Z,7.28
2022-08-07T14:37:39.236Z,7.25
2022-08-07T14:41:34.177Z,9.75
2022-08-07T14:43:57.699Z,12.20
2022-08-07T14:46:03.978Z,9.98
2022-08-07T14:49:17.318Z,11.60
2022-08-07T14:52:04.679Z,8.53
2022-08-07T14:54:31.630Z,9.73
2022-08-07T14:56:56.724Z,7.45
2022-08-07T15:00:05.215Z,7.80
2022-08-07T15:02:32.119Z,7.72
2022-08-07T15:04:53.199Z,8.73
2022-08-07T15:10:12.115Z,9.40
2022-08-07T15:16:10.872Z,10.28
2022-08-07T15:18:53.122Z,8.58
2022-08-07T15:28:02.068Z,7.83
2022-08-07T15:33:04.134Z,7.35
2022-08-07T15:38:51.711Z,7.60
2022-08-07T15:44:03.948Z,8.78
2022-08-07T15:46:49.992Z,7.80
2022-08-07T15:49:17.615Z,7.78
2022-08-07T15:54:20.687Z,7.75
2022-08-07T15:56:52.366Z,8.98
2022-08-07T15:59:39.762Z,8.43
2022-08-07T16:02:02.248Z,10.03
2022-08-07T16:04:32.245Z,10.23
2022-08-07T16:07:04.778Z,8.43
2022-08-07T16:09:45.672Z,8.18
2022-08-07T16:12:38.946Z,8.30
2022-08-07T16:15:55.578Z,8.58
2022-08-07T16:18:50.206Z,10.15
2022-08-07T16:22:02.303Z,8.23
2022-08-07T16:24:09.254Z,8.53
2022-08-07T16:27:17.931Z,9.48
2022-08-07T16:30:11.592Z,11.85
2022-08-07T16:32:32.988Z,9.55
2022-08-07T16:35:03.660Z,9.08
2022-08-07T16:38:05.811Z,8.48
2022-08-07T16:41:01.602Z,8.65
2022-08-07T16:44:06.046Z,8.13
2022-08-07T16:50:27.291Z,8.53
2022-08-07T16:52:01.582Z,9.90
2022-08-07T16:54:33.033Z,10.35
2022-08-07T16:58:01.063Z,13.18
2022-08-07T17:00:15.125Z,13.10
2022-08-07T17:03:06.074Z,14.40
2022-08-07T17:06:30.245Z,16.82
2022-08-07T17:09:10.448Z,14.23
2022-08-07T17:12:05.170Z,13.25
2022-08-07T17:14:22.245Z,11.68
2022-08-07T17:16:55.644Z,10.08
2022-08-07T17:20:03.497Z,7.90
2022-08-07T17:22:36.626Z,9.10
2022-08-07T17:24:56.496Z,10.53
2022-08-07T17:27:51.078Z,13.80
2022-08-07T17:31:00.769Z,8.25
2022-08-07T17:34:09.428Z,11.12
2022-08-07T17:39:17.139Z,10.88
2022-08-07T17:42:26.064Z,9.13
2022-08-07T17:45:04.754Z,10.78
2022-08-07T17:47:54.181Z,10.30
2022-08-07T17:54:53.620Z,10.80
2022-08-07T17:57:00.232Z,8.73
2022-08-07T17:59:39.664Z,9.95
2022-08-07T18:02:23.596Z,9.55
2022-08-07T18:04:55.544Z,10.05
2022-08-07T18:07:36.230Z,14.30
2022-08-07T18:10:32.754Z,9.18
2022-08-07T18:13:09.883Z,10.70
2022-08-07T18:15:53.525Z,9.60
2022-08-07T18:18:45.130Z,11.00
2022-08-07T18:21:42.131Z,14.18
2022-08-07T18:23:50.789Z,10.78
2022-08-07T18:26:20.975Z,9.95
2022-08-07T18:30:08.246Z,10.32
2022-08-07T18:31:59.402Z,12.58
2022-08-07T18:35:07.975Z,11.63
2022-08-07T18:38:59.262Z,8.80
2022-08-07T18:44:00.252Z,12.25
2022-08-07T18:46:36.911Z,11.55
2022-08-07T18:55:43.136Z,14.38
2022-08-07T19:02:18.092Z,12.63
2022-08-07T19:05:09.819Z,14.30
2022-08-07T19:07:51.973Z,9.63
2022-08-07T19:10:51.835Z,9.65
2022-08-07T19:13:34.047Z,15.95
2022-08-07T19:17:04.781Z,11.25
2022-08-07T19:19:36.773Z,13.80
2022-08-07T19:22:18.626Z,10.18
2022-08-07T19:24:55.988Z,9.65
2022-08-07T19:28:29.492Z,10.20
2022-08-07T19:31:00.841Z,11.45
2022-08-07T19:32:44.575Z,9.93
2022-08-07T19:35:12.175Z,10.35
2022-08-07T19:37:55.123Z,10.45
2022-08-07T19:40:30.769Z,9.50
2022-08-07T19:43:05.770Z,9.18
2022-08-07T19:46:07.874Z,10.35
2022-08-07T19:51:51.163Z,9.63
2022-08-07T19:54:34.266Z,12.45
2022-08-07T19:57:52.348Z,10.30
2022-08-07T19:59:41.169Z,10.60
2022-08-07T20:02:12.357Z,11.33
2022-08-07T20:04:52.046Z,10.75
2022-08-07T20:07:46.015Z,10.93
2022-08-07T20:10:35.745Z,9.33
2022-08-07T20:13:05.904Z,11.95
2022-08-07T20:15:58.449Z,10.58
2022-08-07T20:18:36.857Z,10.63
2022-08-07T20:21:21.103Z,11.53
2022-08-07T20:23:58.015Z,14.53
2022-08-07T20:26:45.141Z,13.68
2022-08-07T20:29:17.074Z,12.47
2022-08-07T20:34:51.362Z,14.18
2022-08-07T20:37:18.762Z,10.95
2022-08-07T20:40:02.634Z,11.28
2022-08-07T20:42:33.738Z,11.85
2022-08-07T20:45:32.197Z,13.28
2022-08-07T20:47:56.852Z,12.10
2022-08-07T20:50:26.847Z,10.50
2022-08-07T20:53:01.721Z,14.43
2022-08-07T20:55:37.150Z,13.03
2022-08-07T21:01:09.077Z,10.45
2022-08-07T21:04:07.199Z,15.48
2022-08-07T21:06:26.046Z,16.02
2022-08-07T21:08:59.442Z,12.82
2022-08-07T21:11:49.986Z,14.15
2022-08-07T21:14:33.643Z,10.50
2022-08-07T21:18:00.385Z,14.30
2022-08-07T21:19:51.483Z,11.45
2022-08-07T21:22:14.801Z,11.22
2022-08-07T21:24:49.635Z,11.10
2022-08-07T21:27:39.803Z,11.20
2022-08-07T21:30:10.931Z,12.45
2022-08-07T21:33:00.607Z,11.20
2022-08-07T21:36:05.718Z,13.30
2022-08-07T21:38:29.000Z,11.50
2022-08-07T21:41:08.196Z,16.05
2022-08-07T21:43:56.332Z,11.83
2022-08-07T21:46:25.278Z,11.70
2022-08-07T21:49:25.747Z,10.53
2022-08-07T21:52:13.632Z,11.83
2022-08-07T21:54:50.043Z,14.87
2022-08-07T21:57:51.828Z,11.38
2022-08-07T22:00:25.703Z,10.78
2022-08-07T22:03:03.620Z,10.85
2022-08-07T22:05:44.210Z,12.43
2022-08-07T22:08:26.693Z,15.50
2022-08-07T22:11:01.910Z,12.65
2022-08-07T22:13:51.283Z,15.70
2022-08-07T22:21:02.530Z,11.97
2022-08-07T22:22:44.747Z,11.45
2022-08-07T22:25:43.087Z,11.33
2022-08-07T22:28:35.252Z,11.12
2022-08-07T22:31:45.263Z,11.35
2022-08-07T22:33:57.133Z,11.55
2022-08-07T22:36:52.714Z,11.12
2022-08-07T22:39:29.460Z,13.72
2022-08-07T22:42:32.766Z,12.60
2022-08-07T22:45:10.949Z,11.18
2022-08-07T22:47:49.280Z,15.63
2022-08-07T22:50:41.820Z,12.68
2022-08-07T22:54:06.276Z,11.88
2022-08-07T22:56:15.846Z,13.90
2022-08-07T22:59:07.682Z,17.50
2022-08-07T23:01:51.478Z,14.53
2022-08-07T23:04:35.496Z,13.58
2022-08-07T23:07:40.326Z,15.88
2022-08-07T23:10:04.785Z,13.25
2022-08-07T23:12:35.669Z,13.48
2022-08-07T23:16:05.857Z,14.07
2022-08-07T23:18:32.362Z,14.63
2022-08-07T23:21:36.782Z,13.85
2022-08-07T23:24:28.116Z,12.63
2022-08-07T23:27:33.668Z,15.35
2022-08-07T23:30:38.748Z,17.82
2022-08-07T23:34:23.416Z,16.67
2022-08-07T23:35:42.550Z,13.05
2022-08-07T23:38:42.440Z,13.43
2022-08-07T23:41:33.494Z,14.07
2022-08-07T23:44:29.747Z,18.40
2022-08-07T23:47:19.955Z,14.50
2022-08-07T23:50:11.931Z,14.60
2022-08-07T23:53:16.613Z,17.45
2022-08-07T23:55:52.464Z,13.95
2022-08-07T23:58:25.466Z,13.48
